createdAt,value
2023-08-08T00:01:57.332Z,9.91
2023-08-08T00:04:24.446Z,9.86
2023-08-08T00:06:51.382Z,9.94
2023-08-08T00:09:18.223Z,10.03
2023-08-08T00:11:45.203Z,9.86
2023-08-08T00:14:12.069Z,9.86
2023-08-08T00:16:39.007Z,9.78
2023-08-08T00:19:05.850Z,9.85
2023-08-08T00:21:32.746Z,9.79
2023-08-08T00:23:59.586Z,9.88
2023-08-08T00:26:26.527Z,9.79
2023-08-08T00:28:53.377Z,9.86
2023-08-08T00:31:21.214Z,9.97
2023-08-08T00:33:48.218Z,9.87
2023-08-08T00:36:15.205Z,9.90
2023-08-08T00:38:42.088Z,9.90
2023-08-08T00:41:08.988Z,10.00
2023-08-08T00:43:35.852Z,10.06
2023-08-08T00:46:02.875Z,10.01
2023-08-08T00:48:29.808Z,9.79
2023-08-08T00:50:56.738Z,9.85
2023-08-08T00:53:24.490Z,9.89
2023-08-08T00:55:52.325Z,9.87
2023-08-08T00:58:19.240Z,9.81
2023-08-08T01:00:46.176Z,9.74
2023-08-08T01:03:13.163Z,9.70
2023-08-08T01:05:51.549Z,9.75
2023-08-08T01:08:24.376Z,9.75
2023-08-08T01:10:51.547Z,9.80
2023-08-08T01:13:23.722Z,9.82
2023-08-08T01:15:51.394Z,9.83
2023-08-08T01:18:20.379Z,9.92
2023-08-08T01:20:48.412Z,9.99
2023-08-08T01:23:33.878Z,9.99
2023-08-08T01:26:01.019Z,10.00
2023-08-08T01:28:28.302Z,10.00
2023-08-08T01:30:55.447Z,10.09
2023-08-08T01:33:23.405Z,10.00
2023-08-08T01:35:55.981Z,9.99
2023-08-08T01:38:31.577Z,10.01
2023-08-08T01:40:59.239Z,10.19
2023-08-08T01:43:27.213Z,10.20
2023-08-08T01:45:54.797Z,10.22
2023-08-08T01:48:21.795Z,10.23
2023-08-08T01:50:48.684Z,10.32
2023-08-08T01:53:15.651Z,10.32
2023-08-08T01:55:42.596Z,10.22
2023-08-08T01:58:09.654Z,10.27
2023-08-08T02:00:37.917Z,10.13
2023-08-08T02:03:05.368Z,10.14
2023-08-08T02:05:32.448Z,9.98
2023-08-08T02:07:59.412Z,9.95
2023-08-08T02:10:26.361Z,9.97
2023-08-08T02:12:53.227Z,10.02
2023-08-08T02:15:20.165Z,10.03
2023-08-08T02:17:47.276Z,9.98
2023-08-08T02:20:14.356Z,9.85
2023-08-08T02:22:41.220Z,10.02
2023-08-08T02:25:08.694Z,10.05
2023-08-08T02:27:35.639Z,10.08
2023-08-08T02:30:02.494Z,10.03
2023-08-08T02:32:29.447Z,10.04
2023-08-08T02:34:56.433Z,10.02
2023-08-08T02:37:23.454Z,9.90
2023-08-08T02:39:50.651Z,9.90
2023-08-08T02:42:17.509Z,9.93
2023-08-08T02:44:44.449Z,9.98
2023-08-08T02:47:11.359Z,9.94
2023-08-08T02:49:38.235Z,10.02
2023-08-08T02:52:05.696Z,10.04
2023-08-08T02:54:32.603Z,10.06
2023-08-08T02:56:59.484Z,10.00
2023-08-08T02:59:26.380Z,9.96
2023-08-08T03:01:53.506Z,10.00
2023-08-08T03:04:20.419Z,10.07
2023-08-08T03:06:47.324Z,10.09
2023-08-08T03:09:14.205Z,10.11
2023-08-08T03:11:42.969Z,10.14
2023-08-08T03:14:10.354Z,10.13
2023-08-08T03:16:37.308Z,10.12
2023-08-08T03:19:04.178Z,10.10
2023-08-08T03:21:31.242Z,10.12
2023-08-08T03:23:58.949Z,10.21
2023-08-08T03:26:25.905Z,10.18
2023-08-08T03:28:54.642Z,10.27
2023-08-08T03:31:22.559Z,10.27
2023-08-08T03:33:49.449Z,10.32
2023-08-08T03:36:17.106Z,10.39
2023-08-08T03:38:47.108Z,10.32
2023-08-08T03:41:14.951Z,10.26
2023-08-08T03:43:42.027Z,10.18
2023-08-08T03:46:08.989Z,10.18
2023-08-08T03:48:35.978Z,10.22
2023-08-08T03:51:02.902Z,10.22
2023-08-08T03:53:30.102Z,10.14
2023-08-08T03:55:56.971Z,10.19
2023-08-08T03:58:23.940Z,10.13
2023-08-08T04:00:50.847Z,10.07
2023-08-08T04:03:19.869Z,10.13
2023-08-08T04:05:48.273Z,10.15
2023-08-08T04:08:16.449Z,10.24
2023-08-08T04:10:45.200Z,10.33
2023-08-08T04:13:12.255Z,10.32
2023-08-08T04:15:39.173Z,10.30
2023-08-08T04:18:08.045Z,10.39
2023-08-08T04:20:35.554Z,10.23
2023-08-08T04:23:02.673Z,10.24
2023-08-08T04:25:30.097Z,10.22
2023-08-08T04:27:57.108Z,10.22
2023-08-08T04:30:25.036Z,10.24
2023-08-08T04:32:52.175Z,10.28
2023-08-08T04:35:19.281Z,10.31
2023-08-08T04:37:46.259Z,10.42
2023-08-08T04:40:13.325Z,10.45
2023-08-08T04:42:41.092Z,10.40
2023-08-08T04:45:08.768Z,10.30
2023-08-08T04:47:35.767Z,10.26
2023-08-08T04:50:02.728Z,10.25
2023-08-08T04:52:29.713Z,10.28
2023-08-08T04:54:56.630Z,10.30
2023-08-08T04:57:23.511Z,10.30
2023-08-08T04:59:50.598Z,10.43
2023-08-08T05:02:17.779Z,10.40
2023-08-08T05:04:44.959Z,10.36
2023-08-08T05:07:11.825Z,10.39
2023-08-08T05:09:38.680Z,10.44
2023-08-08T05:12:06.379Z,10.59
2023-08-08T05:14:33.504Z,10.71
2023-08-08T05:17:00.423Z,10.74
2023-08-08T05:19:27.606Z,10.72
2023-08-08T05:21:54.494Z,10.72
2023-08-08T05:24:21.400Z,10.74
2023-08-08T05:26:48.382Z,10.80
2023-08-08T05:29:15.247Z,10.90
2023-08-08T05:31:42.124Z,10.87
2023-08-08T05:34:09.060Z,10.88
2023-08-08T05:36:35.937Z,10.82
2023-08-08T05:39:02.822Z,10.87
2023-08-08T05:41:29.730Z,10.90
2023-08-08T05:43:56.585Z,11.06
2023-08-08T05:46:23.514Z,11.08
2023-08-08T05:48:50.409Z,11.10
2023-08-08T05:51:17.346Z,11.13
2023-08-08T05:53:44.364Z,11.13
2023-08-08T05:56:11.316Z,11.22
2023-08-08T05:58:38.674Z,11.26
2023-08-08T06:01:10.948Z,11.28
2023-08-08T06:03:39.189Z,11.34
2023-08-08T06:06:06.368Z,11.34
2023-08-08T06:08:33.552Z,11.41
2023-08-08T06:11:00.577Z,11.46
2023-08-08T06:13:27.453Z,11.52
2023-08-08T06:15:54.430Z,11.57
2023-08-08T06:18:21.380Z,11.70
2023-08-08T06:20:48.325Z,11.81
2023-08-08T06:23:16.446Z,11.88
2023-08-08T06:25:43.539Z,11.97
2023-08-08T06:28:10.658Z,12.11
2023-08-08T06:30:37.677Z,12.21
2023-08-08T06:33:04.767Z,12.26
2023-08-08T06:35:31.872Z,12.38
2023-08-08T06:37:58.783Z,12.41
2023-08-08T06:40:25.877Z,12.57
2023-08-08T06:42:52.878Z,12.68
2023-08-08T06:45:20.352Z,12.70
2023-08-08T06:47:47.714Z,12.85
2023-08-08T06:50:14.692Z,13.03
2023-08-08T06:52:41.612Z,13.26
2023-08-08T06:55:09.090Z,13.39
2023-08-08T06:57:39.067Z,13.51
2023-08-08T07:00:07.236Z,13.76
2023-08-08T07:02:34.255Z,13.83
2023-08-08T07:05:01.361Z,14.01
2023-08-08T07:07:29.122Z,14.20
2023-08-08T07:09:56.036Z,14.34
2023-08-08T07:12:22.944Z,14.49
2023-08-08T07:14:49.821Z,14.55
2023-08-08T07:17:17.172Z,14.73
2023-08-08T07:19:44.165Z,14.87
2023-08-08T07:22:11.224Z,15.05
2023-08-08T07:24:40.343Z,15.19
2023-08-08T07:27:07.411Z,15.27
2023-08-08T07:29:34.329Z,15.39
2023-08-08T07:32:05.456Z,15.57
2023-08-08T07:34:33.510Z,15.68
2023-08-08T07:37:00.924Z,15.80
2023-08-08T07:39:28.010Z,15.95
2023-08-08T07:41:54.979Z,15.93
2023-08-08T07:44:22.173Z,16.17
2023-08-08T07:46:49.064Z,16.31
2023-08-08T07:49:16.324Z,16.38
2023-08-08T07:51:43.259Z,16.45
2023-08-08T07:54:11.898Z,16.55
2023-08-08T07:56:39.016Z,16.68
2023-08-08T07:59:06.698Z,16.86
2023-08-08T08:01:33.639Z,16.91
2023-08-08T08:04:04.152Z,16.99
2023-08-08T08:06:31.112Z,17.16
2023-08-08T08:08:57.998Z,17.26
2023-08-08T08:11:24.947Z,17.45
2023-08-08T08:13:51.842Z,17.60
2023-08-08T08:16:18.836Z,17.70
2023-08-08T08:18:45.807Z,17.75
2023-08-08T08:21:14.400Z,17.88
2023-08-08T08:23:41.615Z,18.00
2023-08-08T08:26:08.512Z,18.11
2023-08-08T08:28:35.477Z,18.32
2023-08-08T08:31:07.211Z,18.54
2023-08-08T08:33:34.151Z,18.67
2023-08-08T08:36:01.016Z,18.86
2023-08-08T08:38:27.870Z,18.94
2023-08-08T08:40:57.782Z,19.05
2023-08-08T08:43:24.838Z,19.18
2023-08-08T08:45:55.054Z,19.31
2023-08-08T08:48:23.114Z,19.33
2023-08-08T08:50:50.664Z,19.47
2023-08-08T08:53:19.054Z,19.57
2023-08-08T08:55:47.650Z,19.63
2023-08-08T08:58:21.128Z,19.78
2023-08-08T09:00:48.270Z,19.78
2023-08-08T09:03:15.302Z,19.83
2023-08-08T09:05:43.576Z,19.93
2023-08-08T09:08:10.796Z,20.08
2023-08-08T09:10:38.173Z,20.06
2023-08-08T09:13:05.481Z,20.06
2023-08-08T09:15:34.431Z,19.97
2023-08-08T09:18:02.596Z,20.04
2023-08-08T09:20:30.373Z,20.11
2023-08-08T09:22:58.202Z,20.27
2023-08-08T09:25:26.976Z,20.39
2023-08-08T09:27:54.799Z,20.57
2023-08-08T09:30:22.047Z,20.45
2023-08-08T09:32:49.270Z,20.58
2023-08-08T09:35:16.808Z,20.60
2023-08-08T09:37:43.762Z,20.72
2023-08-08T09:40:14.590Z,20.97
2023-08-08T09:42:43.053Z,21.09
2023-08-08T09:45:11.145Z,21.32
2023-08-08T09:47:39.009Z,21.51
2023-08-08T09:50:07.084Z,21.73
2023-08-08T09:52:40.483Z,21.77
2023-08-08T09:55:07.955Z,21.88
2023-08-08T09:57:34.985Z,21.87
2023-08-08T10:00:05.722Z,21.79
2023-08-08T10:02:33.625Z,21.71
2023-08-08T10:05:01.214Z,21.70
2023-08-08T10:07:28.128Z,21.53
2023-08-08T10:09:55.275Z,21.41
2023-08-08T10:12:24.073Z,21.25
2023-08-08T10:14:51.632Z,21.33
2023-08-08T10:17:19.929Z,21.29
2023-08-08T10:19:56.437Z,21.24
2023-08-08T10:22:25.781Z,21.28
2023-08-08T10:24:55.636Z,21.23
2023-08-08T10:27:33.777Z,21.40
2023-08-08T10:30:11.864Z,21.61
2023-08-08T10:32:45.209Z,21.70
2023-08-08T10:35:13.379Z,21.88
2023-08-08T10:37:41.021Z,21.95
2023-08-08T10:40:09.539Z,21.79
2023-08-08T10:42:47.488Z,21.73
2023-08-08T10:45:17.096Z,21.70
2023-08-08T10:47:46.442Z,21.70
2023-08-08T10:50:17.064Z,21.81
2023-08-08T10:52:55.502Z,21.83
2023-08-08T10:55:37.401Z,21.73
2023-08-08T10:58:04.238Z,21.61
2023-08-08T11:00:33.886Z,21.48
2023-08-08T11:03:01.676Z,21.51
2023-08-08T11:05:35.466Z,21.65
2023-08-08T11:08:05.185Z,21.77
2023-08-08T11:10:41.694Z,21.52
2023-08-08T11:13:10.010Z,21.43
2023-08-08T11:15:38.449Z,21.47
2023-08-08T11:18:07.068Z,21.54
2023-08-08T11:20:36.780Z,21.32
2023-08-08T11:23:07.252Z,21.31
2023-08-08T11:25:34.300Z,21.25
2023-08-08T11:28:01.231Z,21.41
2023-08-08T11:30:37.374Z,21.57
2023-08-08T11:35:36.399Z,21.99
2023-08-08T11:38:05.645Z,22.07
2023-08-08T11:40:33.097Z,22.00
2023-08-08T11:43:00.585Z,21.91
2023-08-08T11:45:27.627Z,21.80
2023-08-08T11:47:56.696Z,21.96
2023-08-08T11:50:26.230Z,22.12
2023-08-08T11:52:55.214Z,22.30
2023-08-08T11:55:28.688Z,22.21
2023-08-08T11:58:03.297Z,22.35
2023-08-08T12:00:32.163Z,22.51
2023-08-08T12:03:02.144Z,22.84
2023-08-08T12:05:29.818Z,23.07
2023-08-08T12:07:56.896Z,23.35
2023-08-08T12:10:25.448Z,23.60
2023-08-08T12:12:59.030Z,23.72
2023-08-08T12:15:38.584Z,23.86
2023-08-08T12:18:06.340Z,24.00
2023-08-08T12:20:33.620Z,23.94
2023-08-08T12:23:01.305Z,24.02
2023-08-08T12:25:28.760Z,24.16
2023-08-08T12:27:56.019Z,24.35
2023-08-08T12:30:26.868Z,24.34
2023-08-08T12:32:54.845Z,23.94
2023-08-08T12:35:21.857Z,23.97
2023-08-08T12:37:48.834Z,23.76
2023-08-08T12:40:15.720Z,23.61
2023-08-08T12:42:42.980Z,23.66
2023-08-08T12:45:11.026Z,23.38
2023-08-08T12:47:38.995Z,23.62
2023-08-08T12:50:07.280Z,23.74
2023-08-08T12:52:34.200Z,23.84
2023-08-08T12:55:01.390Z,23.85
2023-08-08T12:57:28.273Z,23.97
2023-08-08T12:59:55.267Z,23.99
2023-08-08T13:02:22.196Z,24.04
2023-08-08T13:04:49.087Z,23.92
2023-08-08T13:07:15.996Z,23.80
2023-08-08T13:09:43.100Z,23.81
2023-08-08T13:12:10.195Z,23.89
2023-08-08T13:14:37.640Z,23.98
2023-08-08T13:17:04.608Z,24.01
2023-08-08T13:19:31.560Z,23.92
2023-08-08T13:21:59.180Z,24.21
2023-08-08T13:24:26.612Z,24.37
2023-08-08T13:26:53.504Z,24.46
2023-08-08T13:29:20.454Z,24.76
2023-08-08T13:31:47.353Z,24.76
2023-08-08T13:34:14.349Z,24.72
2023-08-08T13:36:41.513Z,24.66
2023-08-08T13:39:10.738Z,24.57
2023-08-08T13:41:37.629Z,24.34
2023-08-08T13:44:04.953Z,24.49
2023-08-08T13:46:31.939Z,24.48
2023-08-08T13:48:58.921Z,24.61
2023-08-08T13:51:25.831Z,24.77
2023-08-08T13:53:52.734Z,24.84
2023-08-08T13:56:19.631Z,24.72
2023-08-08T13:58:46.631Z,24.53
2023-08-08T14:01:13.572Z,24.50
2023-08-08T14:03:40.596Z,24.44
2023-08-08T14:06:07.632Z,24.29
2023-08-08T14:08:34.581Z,23.94
2023-08-08T14:11:01.532Z,23.98
2023-08-08T14:13:28.428Z,23.88
2023-08-08T14:15:55.458Z,23.82
2023-08-08T14:18:22.396Z,23.78
2023-08-08T14:20:49.324Z,23.50
2023-08-08T14:23:16.215Z,23.53
2023-08-08T14:25:43.683Z,23.20
2023-08-08T14:28:10.593Z,23.16
2023-08-08T14:30:38.372Z,23.16
2023-08-08T14:33:05.456Z,23.05
2023-08-08T14:35:32.497Z,22.88
2023-08-08T14:37:59.401Z,22.91
2023-08-08T14:40:26.876Z,22.88
2023-08-08T14:42:56.303Z,22.81
2023-08-08T14:45:23.526Z,22.70
2023-08-08T14:47:50.467Z,22.53
2023-08-08T14:50:18.155Z,22.61
2023-08-08T14:52:45.090Z,22.79
2023-08-08T14:55:12.164Z,22.96
2023-08-08T14:57:39.062Z,22.99
2023-08-08T15:00:08.064Z,23.07
2023-08-08T15:02:35.101Z,23.13
2023-08-08T15:05:02.250Z,23.02
2023-08-08T15:07:29.144Z,23.09
2023-08-08T15:09:56.311Z,23.20
2023-08-08T15:12:23.201Z,23.14
2023-08-08T15:14:52.041Z,23.06
2023-08-08T15:17:19.513Z,23.11
2023-08-08T15:19:46.996Z,23.16
2023-08-08T15:22:13.998Z,23.20
2023-08-08T15:24:40.991Z,23.17
2023-08-08T15:27:07.951Z,23.09
2023-08-08T15:29:34.926Z,23.07
2023-08-08T15:32:01.886Z,23.03
2023-08-08T15:34:29.006Z,22.97
2023-08-08T15:36:59.825Z,23.20
2023-08-08T15:39:26.994Z,23.25
2023-08-08T15:41:53.954Z,23.33
2023-08-08T15:44:20.836Z,23.29
2023-08-08T15:46:48.720Z,23.16
2023-08-08T15:49:15.719Z,22.99
2023-08-08T15:51:43.389Z,22.87
2023-08-08T15:54:10.411Z,22.91
2023-08-08T15:56:39.464Z,22.95
2023-08-08T15:59:07.190Z,22.94
2023-08-08T16:01:34.957Z,22.94
2023-08-08T16:04:01.959Z,22.97
2023-08-08T16:06:30.328Z,22.95
2023-08-08T16:08:57.217Z,22.77
2023-08-08T16:11:24.118Z,22.85
2023-08-08T16:13:51.149Z,22.89
2023-08-08T16:16:18.117Z,22.72
2023-08-08T16:18:45.136Z,22.69
2023-08-08T16:21:12.196Z,22.76
2023-08-08T16:23:39.077Z,22.60
2023-08-08T16:26:05.982Z,22.84
2023-08-08T16:28:33.669Z,22.75
2023-08-08T16:31:00.735Z,22.79
2023-08-08T16:33:27.737Z,22.84
2023-08-08T16:35:55.126Z,22.86
2023-08-08T16:38:22.032Z,22.67
2023-08-08T16:40:49.003Z,22.62
2023-08-08T16:43:17.288Z,22.54
2023-08-08T16:45:44.640Z,22.52
2023-08-08T16:48:11.525Z,22.19
2023-08-08T16:50:38.501Z,22.33
2023-08-08T16:53:05.491Z,22.26
2023-08-08T16:55:32.462Z,22.38
2023-08-08T16:57:59.456Z,22.14
2023-08-08T17:00:26.864Z,22.26
2023-08-08T17:02:53.886Z,22.26
2023-08-08T17:05:20.925Z,22.35
2023-08-08T17:07:50.324Z,22.36
2023-08-08T17:10:17.331Z,22.17
2023-08-08T17:12:44.647Z,22.06
2023-08-08T17:15:11.660Z,22.15
2023-08-08T17:17:38.648Z,22.18
2023-08-08T17:20:06.695Z,22.08
2023-08-08T17:22:34.012Z,22.10
2023-08-08T17:25:01.581Z,21.95
2023-08-08T17:27:28.928Z,21.96
2023-08-08T17:29:55.858Z,21.85
2023-08-08T17:32:22.826Z,21.76
2023-08-08T17:34:49.803Z,21.71
2023-08-08T17:37:16.895Z,21.48
2023-08-08T17:39:43.817Z,21.54
2023-08-08T17:42:11.096Z,21.48
2023-08-08T17:44:37.981Z,21.24
2023-08-08T17:47:04.883Z,21.22
2023-08-08T17:49:31.787Z,21.10
2023-08-08T17:51:59.127Z,21.00
2023-08-08T17:54:26.668Z,21.05
2023-08-08T17:56:53.643Z,20.93
2023-08-08T17:59:20.606Z,20.80
2023-08-08T18:01:48.143Z,20.77
2023-08-08T18:04:15.202Z,20.69
2023-08-08T18:06:42.209Z,20.61
2023-08-08T18:09:09.192Z,20.55
2023-08-08T18:11:39.667Z,20.51
2023-08-08T18:14:10.586Z,20.48
2023-08-08T18:16:38.217Z,20.49
2023-08-08T18:19:05.579Z,20.37
2023-08-08T18:21:33.471Z,20.34
2023-08-08T18:24:00.524Z,20.10
2023-08-08T18:26:28.111Z,20.13
2023-08-08T18:28:55.285Z,19.99
2023-08-08T18:31:22.499Z,19.91
2023-08-08T18:33:49.425Z,19.83
2023-08-08T18:36:16.302Z,19.72
2023-08-08T18:38:44.024Z,19.29
2023-08-08T18:41:11.514Z,19.39
2023-08-08T18:43:38.717Z,19.33
2023-08-08T18:46:07.043Z,19.08
2023-08-08T18:48:34.000Z,18.98
2023-08-08T18:51:01.302Z,18.99
2023-08-08T18:53:28.258Z,18.87
2023-08-08T18:55:55.233Z,18.80
2023-08-08T18:58:22.121Z,18.78
2023-08-08T19:00:50.020Z,18.58
2023-08-08T19:03:19.004Z,18.53
2023-08-08T19:05:46.385Z,18.43
2023-08-08T19:08:13.270Z,18.15
2023-08-08T19:10:40.160Z,17.88
2023-08-08T19:13:07.251Z,17.82
2023-08-08T19:15:34.146Z,17.63
2023-08-08T19:18:01.241Z,17.59
2023-08-08T19:20:28.178Z,17.51
2023-08-08T19:22:55.134Z,17.42
2023-08-08T19:25:23.228Z,17.50
2023-08-08T19:27:50.130Z,17.34
2023-08-08T19:30:17.032Z,17.25
2023-08-08T19:32:44.109Z,17.18
2023-08-08T19:35:11.034Z,17.05
2023-08-08T19:37:37.945Z,16.89
2023-08-08T19:40:05.467Z,16.78
2023-08-08T19:42:32.400Z,16.75
2023-08-08T19:44:59.317Z,16.69
2023-08-08T19:47:26.223Z,16.75
2023-08-08T19:49:53.115Z,16.73
2023-08-08T19:52:20.231Z,16.64
2023-08-08T19:54:47.160Z,16.53
2023-08-08T19:57:14.060Z,16.44
2023-08-08T19:59:40.975Z,16.49
2023-08-08T20:02:08.694Z,16.20
2023-08-08T20:04:35.594Z,15.96
2023-08-08T20:07:02.499Z,15.81
2023-08-08T20:09:29.778Z,15.68
2023-08-08T20:11:56.711Z,15.73
2023-08-08T20:14:23.739Z,15.53
2023-08-08T20:16:50.625Z,15.63
2023-08-08T20:19:18.138Z,15.43
2023-08-08T20:21:45.044Z,15.58
2023-08-08T20:24:14.095Z,15.54
2023-08-08T20:26:41.644Z,15.57
2023-08-08T20:29:08.968Z,15.63
2023-08-08T20:31:36.020Z,15.59
2023-08-08T20:34:02.967Z,15.55
2023-08-08T20:36:29.861Z,15.54
2023-08-08T20:38:56.754Z,15.56
2023-08-08T20:41:23.732Z,15.62
2023-08-08T20:43:50.632Z,15.60
2023-08-08T20:46:17.583Z,15.37
2023-08-08T20:48:44.639Z,15.20
2023-08-08T20:51:11.568Z,15.18
2023-08-08T20:53:38.741Z,15.27
2023-08-08T20:56:05.826Z,15.13
2023-08-08T20:58:33.020Z,15.13
2023-08-08T21:00:59.983Z,15.05
2023-08-08T21:03:27.021Z,15.02
2023-08-08T21:05:54.033Z,14.89
2023-08-08T21:08:21.005Z,14.64
2023-08-08T21:10:48.281Z,14.68
2023-08-08T21:13:15.221Z,14.62
2023-08-08T21:15:42.203Z,14.66
2023-08-08T21:18:09.116Z,14.63
2023-08-08T21:20:36.065Z,14.45
2023-08-08T21:23:03.017Z,14.51
2023-08-08T21:25:29.910Z,14.60
2023-08-08T21:27:57.069Z,14.64
2023-08-08T21:30:24.132Z,14.61
2023-08-08T21:32:51.089Z,14.41
2023-08-08T21:35:18.060Z,14.35
2023-08-08T21:37:45.007Z,14.22
2023-08-08T21:40:12.405Z,14.23
2023-08-08T21:42:39.514Z,14.07
2023-08-08T21:45:07.429Z,14.19
2023-08-08T21:47:35.092Z,14.19
2023-08-08T21:50:02.453Z,14.17
2023-08-08T21:52:29.342Z,14.14
2023-08-08T21:54:56.224Z,14.16
2023-08-08T21:57:23.122Z,14.09
2023-08-08T21:59:49.979Z,14.22
2023-08-08T22:02:18.214Z,14.23
2023-08-08T22:04:45.262Z,14.27
2023-08-08T22:07:12.180Z,14.11
2023-08-08T22:09:39.110Z,13.98
2023-08-08T22:12:06.448Z,13.97
2023-08-08T22:14:33.323Z,13.97
2023-08-08T22:17:01.583Z,14.01
2023-08-08T22:19:28.671Z,14.04
2023-08-08T22:21:55.588Z,13.84
2023-08-08T22:24:22.523Z,13.80
2023-08-08T22:26:49.403Z,13.76
2023-08-08T22:29:16.333Z,13.75
2023-08-08T22:31:43.330Z,13.75
2023-08-08T22:34:10.384Z,13.64
2023-08-08T22:36:37.256Z,13.81
2023-08-08T22:39:04.584Z,13.84
2023-08-08T22:41:31.456Z,13.92
2023-08-08T22:43:58.350Z,14.03
2023-08-08T22:46:25.276Z,14.02
2023-08-08T22:48:52.285Z,14.03
2023-08-08T22:51:19.213Z,14.12
2023-08-08T22:53:46.152Z,14.18
2023-08-08T22:56:13.952Z,14.19
2023-08-08T22:58:40.839Z,14.18
2023-08-08T23:01:08.190Z,14.18
2023-08-08T23:03:38.424Z,14.19
2023-08-08T23:06:06.467Z,14.22
2023-08-08T23:08:33.360Z,14.18
2023-08-08T23:11:00.756Z,14.33
2023-08-08T23:13:27.752Z,14.29
2023-08-08T23:15:54.769Z,14.32
2023-08-08T23:18:21.709Z,14.33
2023-08-08T23:20:50.465Z,14.28
2023-08-08T23:23:17.409Z,14.31
2023-08-08T23:25:45.665Z,14.31
2023-08-08T23:28:12.630Z,14.22
2023-08-08T23:30:39.547Z,14.12
2023-08-08T23:33:06.445Z,13.96
2023-08-08T23:35:33.492Z,14.00
2023-08-08T23:38:00.413Z,13.82
2023-08-08T23:40:27.383Z,14.01
2023-08-08T23:42:54.459Z,13.92
2023-08-08T23:45:21.683Z,14.01
2023-08-08T23:47:48.588Z,14.05
2023-08-08T23:50:15.833Z,13.96
2023-08-08T23:52:43.076Z,14.05
2023-08-08T23:55:11.165Z,14.00
2023-08-08T23:57:38.410Z,14.11
